createdAt,value
2023-02-27T00:02:32.090Z,1.40
2023-02-27T00:16:15.461Z,1.30
2023-02-27T00:27:16.671Z,1.65
2023-02-27T04:25:33.036Z,2.10
2023-02-27T05:33:47.823Z,2.40
2023-02-27T07:01:03.875Z,5.57
2023-02-27T07:03:40.248Z,5.32
2023-02-27T07:07:36.418Z,4.78
2023-02-27T07:09:42.692Z,4.90
2023-02-27T07:12:16.115Z,4.20
2023-02-27T07:14:47.418Z,4.88
2023-02-27T07:17:19.032Z,5.93
2023-02-27T07:19:52.197Z,5.30
2023-02-27T07:22:20.805Z,6.03
2023-02-27T07:24:49.209Z,7.00
2023-02-27T07:27:20.822Z,6.40
2023-02-27T07:29:49.466Z,7.13
2023-02-27T07:32:18.383Z,7.00
2023-02-27T07:34:46.924Z,6.38
2023-02-27T07:37:16.886Z,5.75
2023-02-27T07:39:45.980Z,5.55
2023-02-27T07:42:17.654Z,5.18
2023-02-27T07:44:46.321Z,5.43
2023-02-27T07:47:14.604Z,5.20
2023-02-27T07:49:42.856Z,5.70
2023-02-27T07:52:11.505Z,5.88
2023-02-27T07:54:41.282Z,5.88
2023-02-27T07:57:09.523Z,4.60
2023-02-27T07:59:37.857Z,4.25
2023-02-27T08:02:06.441Z,3.80
2023-02-27T08:04:34.825Z,3.22
2023-02-27T08:07:06.253Z,2.92
2023-02-27T08:09:34.551Z,2.88
2023-02-27T08:12:04.744Z,2.80
2023-02-27T08:14:33.059Z,2.90
2023-02-27T08:17:02.302Z,2.65
2023-02-27T08:19:31.057Z,2.95
2023-02-27T08:22:00.848Z,2.75
2023-02-27T08:24:29.320Z,2.65
2023-02-27T08:26:57.620Z,2.72
2023-02-27T08:29:28.288Z,2.42
2023-02-27T08:31:57.158Z,2.90
2023-02-27T08:37:30.416Z,2.22
2023-02-27T08:40:01.010Z,17.00
2023-02-27T08:42:29.606Z,4.18
2023-02-27T08:44:59.598Z,2.97
2023-02-27T08:47:30.033Z,6.28
2023-02-27T09:18:18.286Z,3.10
2023-02-27T09:20:46.807Z,2.65
2023-02-27T09:23:17.051Z,2.42
2023-02-27T09:25:47.844Z,2.30
2023-02-27T09:28:18.717Z,3.03
2023-02-27T09:30:47.232Z,2.25
2023-02-27T09:33:17.233Z,1.98
2023-02-27T09:35:45.787Z,3.30
2023-02-27T09:38:15.220Z,2.40
2023-02-27T09:40:45.971Z,2.95
2023-02-27T09:43:20.014Z,3.38
2023-02-27T09:45:51.343Z,3.53
2023-02-27T09:48:31.742Z,6.00
2023-02-27T09:51:01.072Z,4.28
2023-02-27T09:53:35.956Z,3.13
2023-02-27T09:56:09.312Z,2.45
2023-02-27T09:58:47.136Z,3.20
2023-02-27T10:01:20.520Z,2.63
2023-02-27T10:04:24.404Z,3.75
2023-02-27T10:06:59.676Z,2.10
2023-02-27T10:09:38.765Z,2.20
2023-02-27T10:12:30.750Z,2.45
2023-02-27T10:15:06.004Z,2.67
2023-02-27T10:17:40.890Z,2.80
2023-02-27T10:20:25.689Z,2.50
2023-02-27T10:22:58.135Z,2.97
2023-02-27T10:25:31.819Z,2.22
2023-02-27T10:28:17.149Z,2.40
2023-02-27T10:30:49.205Z,2.85
2023-02-27T10:33:26.746Z,3.15
2023-02-27T10:35:56.459Z,2.53
2023-02-27T10:38:33.051Z,2.10
2023-02-27T10:41:03.069Z,1.88
2023-02-27T10:43:32.327Z,2.40
2023-02-27T10:46:03.960Z,2.15
2023-02-27T10:48:47.466Z,2.15
2023-02-27T10:51:51.695Z,1.80
2023-02-27T10:54:37.641Z,2.47
2023-02-27T11:00:54.573Z,2.40
2023-02-27T11:03:28.863Z,2.00
2023-02-27T11:05:59.372Z,1.90
2023-02-27T11:08:31.300Z,2.15
2023-02-27T11:11:04.192Z,1.95
2023-02-27T11:13:34.596Z,1.92
2023-02-27T11:16:09.755Z,2.20
2023-02-27T11:18:40.073Z,2.10
2023-02-27T11:21:20.100Z,2.60
2023-02-27T11:23:58.829Z,1.90
2023-02-27T11:26:37.351Z,2.50
2023-02-27T11:29:09.468Z,2.08
2023-02-27T11:31:39.348Z,1.85
2023-02-27T11:34:08.702Z,1.92
2023-02-27T11:36:42.950Z,2.17
2023-02-27T11:39:24.032Z,2.30
2023-02-27T11:41:54.310Z,4.25
2023-02-27T11:44:49.731Z,2.33
2023-02-27T11:47:24.064Z,1.55
2023-02-27T11:50:10.047Z,1.92
2023-02-27T11:52:45.880Z,1.67
2023-02-27T11:55:18.155Z,1.83
2023-02-27T11:57:50.379Z,2.10
2023-02-27T12:00:22.015Z,2.30
2023-02-27T12:03:00.085Z,1.80
2023-02-27T12:05:32.535Z,2.20
2023-02-27T12:08:05.713Z,1.90
2023-02-27T12:10:43.749Z,2.10
2023-02-27T12:13:18.915Z,2.05
2023-02-27T12:15:51.682Z,3.10
2023-02-27T12:18:24.994Z,1.65
2023-02-27T12:20:58.312Z,1.80
2023-02-27T12:23:35.038Z,1.95
2023-02-27T12:26:05.705Z,1.45
2023-02-27T12:28:52.246Z,1.60
2023-02-27T12:31:39.897Z,2.45
2023-02-27T12:34:18.128Z,4.35
2023-02-27T12:36:48.750Z,2.50
2023-02-27T12:39:20.703Z,1.75
2023-02-27T12:42:17.237Z,2.85
2023-02-27T12:45:01.400Z,2.25
2023-02-27T12:47:39.912Z,2.40
2023-02-27T12:50:13.171Z,1.80
2023-02-27T12:52:55.669Z,2.60
2023-02-27T12:55:28.373Z,2.40
2023-02-27T12:58:26.514Z,4.55
2023-02-27T13:01:01.960Z,2.60
2023-02-27T13:03:36.559Z,1.90
2023-02-27T13:06:13.984Z,2.08
2023-02-27T13:09:21.252Z,2.90
2023-02-27T13:11:58.700Z,4.82
2023-02-27T13:14:36.054Z,2.33
2023-02-27T13:17:19.530Z,1.95
2023-02-27T13:19:53.865Z,1.95
2023-02-27T13:22:31.526Z,1.70
2023-02-27T13:25:03.730Z,2.28
2023-02-27T13:27:35.895Z,1.98
2023-02-27T13:30:15.129Z,1.63
2023-02-27T13:32:51.348Z,1.90
2023-02-27T13:35:29.503Z,1.85
2023-02-27T13:38:01.645Z,1.90
2023-02-27T13:40:35.759Z,1.80
2023-02-27T13:43:07.625Z,2.30
2023-02-27T13:45:54.728Z,1.90
2023-02-27T13:48:41.222Z,1.85
2023-02-27T13:51:13.070Z,1.38
2023-02-27T13:53:41.361Z,2.15
2023-02-27T13:56:26.657Z,1.75
2023-02-27T13:58:56.966Z,1.85
2023-02-27T14:01:29.607Z,1.70
2023-02-27T14:04:05.351Z,1.80
2023-02-27T14:06:33.757Z,1.73
2023-02-27T14:09:14.451Z,2.17
2023-02-27T14:11:54.394Z,2.00
2023-02-27T14:14:45.986Z,2.30
2023-02-27T14:17:15.766Z,1.92
2023-02-27T14:19:59.271Z,2.00
2023-02-27T14:22:41.198Z,1.92
2023-02-27T14:25:18.573Z,1.70
2023-02-27T14:27:52.087Z,1.90
2023-02-27T14:30:48.035Z,1.83
2023-02-27T14:33:39.715Z,1.40
2023-02-27T14:36:18.214Z,0.90
2023-02-27T14:38:49.389Z,0.95
2023-02-27T14:41:34.166Z,1.30
2023-02-27T14:44:02.673Z,0.90
2023-02-27T14:46:33.419Z,0.90
2023-02-27T14:49:07.139Z,2.47
2023-02-27T14:51:38.751Z,1.42
2023-02-27T14:54:13.968Z,3.13
2023-02-27T14:56:43.044Z,2.63
2023-02-27T14:59:25.455Z,2.20
2023-02-27T15:01:54.813Z,2.60
2023-02-27T15:04:27.366Z,3.13
2023-02-27T15:06:58.377Z,1.20
2023-02-27T15:09:38.424Z,2.83
2023-02-27T15:12:07.101Z,2.80
2023-02-27T15:14:38.222Z,2.70
2023-02-27T15:17:16.774Z,3.60
2023-02-27T15:19:49.135Z,3.53
2023-02-27T15:22:37.581Z,2.22
2023-02-27T15:25:08.100Z,2.55
2023-02-27T15:27:38.249Z,2.53
2023-02-27T15:30:08.220Z,1.60
2023-02-27T15:32:39.835Z,1.80
2023-02-27T15:35:16.413Z,2.55
2023-02-27T15:37:53.025Z,2.45
2023-02-27T15:40:24.845Z,2.25
2023-02-27T15:42:54.101Z,2.20
2023-02-27T15:45:25.363Z,3.13
2023-02-27T15:47:53.994Z,2.53
2023-02-27T15:50:28.782Z,3.17
2023-02-27T15:53:09.939Z,3.05
2023-02-27T15:55:43.117Z,3.47
2023-02-27T15:58:24.366Z,2.72
2023-02-27T16:01:00.647Z,3.05
2023-02-27T16:03:35.326Z,2.00
2023-02-27T16:06:04.417Z,1.80
2023-02-27T16:08:37.059Z,4.10
2023-02-27T16:11:05.642Z,3.05
2023-02-27T16:13:38.848Z,2.00
2023-02-27T16:16:22.736Z,1.60
2023-02-27T16:18:52.827Z,2.30
2023-02-27T16:21:25.767Z,3.10
2023-02-27T16:23:56.045Z,2.80
2023-02-27T16:26:30.873Z,2.20
2023-02-27T16:29:02.530Z,2.22
2023-02-27T16:31:33.021Z,4.40
2023-02-27T16:34:15.576Z,8.15
2023-02-27T16:36:53.529Z,9.00
2023-02-27T16:39:23.288Z,3.90
2023-02-27T16:41:53.932Z,3.92
2023-02-27T16:44:23.781Z,3.78
2023-02-27T16:47:06.744Z,8.15
2023-02-27T16:49:35.106Z,6.10
2023-02-27T16:52:05.566Z,6.00
2023-02-27T16:54:35.442Z,4.55
2023-02-27T16:57:04.710Z,3.03
2023-02-27T16:59:36.137Z,2.50
2023-02-27T17:02:09.100Z,2.25
2023-02-27T17:04:37.458Z,2.53
2023-02-27T17:07:06.996Z,2.95
2023-02-27T17:09:39.779Z,2.67
2023-02-27T17:12:08.179Z,2.10
2023-02-27T17:14:36.458Z,2.58
2023-02-27T17:17:05.130Z,2.33
2023-02-27T17:19:36.404Z,2.45
2023-02-27T17:22:04.731Z,2.10
2023-02-27T17:24:35.586Z,2.92
2023-02-27T17:27:05.434Z,2.28
2023-02-27T17:29:38.533Z,2.80
2023-02-27T17:32:07.615Z,2.90
2023-02-27T17:34:35.908Z,2.40
2023-02-27T17:37:07.549Z,3.03
2023-02-27T17:39:35.827Z,3.53
2023-02-27T17:42:05.765Z,3.90
2023-02-27T17:44:34.013Z,9.40
2023-02-27T17:47:02.273Z,27.02
2023-02-27T17:49:48.337Z,17.20
2023-02-27T17:52:17.356Z,17.02
2023-02-27T17:54:55.724Z,21.58
2023-02-27T17:57:27.163Z,18.45
2023-02-27T17:59:55.833Z,16.25
2023-02-27T18:02:25.630Z,14.68
2023-02-27T18:04:57.579Z,9.35
2023-02-27T18:07:29.240Z,9.13
2023-02-27T18:10:01.325Z,7.70
2023-02-27T18:12:34.310Z,7.32
2023-02-27T18:15:07.321Z,6.72
2023-02-27T18:17:45.039Z,4.60
2023-02-27T18:20:16.933Z,6.43
2023-02-27T18:22:45.676Z,5.40
2023-02-27T18:25:16.905Z,6.82
2023-02-27T18:27:52.770Z,5.07
2023-02-27T18:30:22.010Z,6.80
2023-02-27T18:32:52.211Z,5.50
2023-02-27T18:35:20.810Z,7.40
2023-02-27T18:37:55.365Z,5.72
2023-02-27T18:40:25.144Z,13.95
2023-02-27T18:43:10.358Z,6.80
2023-02-27T18:45:39.219Z,8.15
2023-02-27T18:48:08.406Z,11.43
2023-02-27T18:50:40.429Z,8.88
2023-02-27T18:53:19.049Z,8.18
2023-02-27T18:55:50.601Z,7.32
2023-02-27T18:58:26.043Z,8.15
2023-02-27T19:01:14.433Z,8.80
2023-02-27T19:03:42.889Z,9.25
2023-02-27T19:06:15.425Z,10.80
2023-02-27T19:08:51.220Z,7.70
2023-02-27T19:11:33.548Z,6.30
2023-02-27T19:14:09.433Z,11.90
2023-02-27T19:16:52.337Z,8.02
2023-02-27T19:19:21.283Z,7.43
2023-02-27T19:21:49.653Z,6.72
2023-02-27T19:24:23.842Z,3.67
2023-02-27T19:26:55.954Z,3.80
2023-02-27T19:29:33.599Z,6.47
2023-02-27T19:32:04.387Z,5.30
2023-02-27T19:34:40.476Z,3.85
2023-02-27T19:37:12.302Z,4.35
2023-02-27T19:39:44.540Z,5.22
2023-02-27T19:42:16.336Z,5.40
2023-02-27T19:44:56.908Z,5.00
2023-02-27T19:47:29.009Z,6.30
2023-02-27T19:50:00.628Z,10.13
2023-02-27T19:52:29.169Z,8.60
2023-02-27T19:55:03.000Z,7.32
2023-02-27T19:58:02.683Z,6.93
2023-02-27T20:00:38.202Z,6.50
2023-02-27T20:03:17.767Z,12.63
2023-02-27T20:05:54.994Z,9.73
2023-02-27T20:08:29.233Z,8.40
2023-02-27T20:11:14.766Z,8.88
2023-02-27T20:13:59.740Z,8.80
2023-02-27T20:16:38.002Z,6.50
2023-02-27T20:19:14.758Z,8.07
2023-02-27T20:21:44.990Z,8.27
2023-02-27T20:24:30.283Z,14.68
2023-02-27T20:27:03.049Z,11.30
2023-02-27T20:29:41.324Z,15.48
2023-02-27T20:32:32.545Z,12.48
2023-02-27T20:35:17.039Z,10.55
2023-02-27T20:37:48.603Z,12.05
2023-02-27T20:40:17.877Z,9.48
2023-02-27T20:42:56.898Z,8.55
2023-02-27T20:45:29.638Z,20.05
2023-02-27T20:48:02.273Z,19.55
2023-02-27T20:50:36.773Z,24.08
2023-02-27T20:53:05.317Z,23.00
2023-02-27T20:55:49.599Z,17.00
2023-02-27T20:58:18.283Z,12.40
2023-02-27T21:00:56.884Z,11.50
2023-02-27T21:03:51.548Z,16.45
2023-02-27T21:06:20.779Z,13.93
2023-02-27T21:08:55.598Z,13.05
2023-02-27T21:11:27.927Z,12.15
2023-02-27T21:14:00.042Z,11.70
2023-02-27T21:16:55.239Z,9.07
2023-02-27T21:19:26.079Z,7.97
2023-02-27T21:22:17.307Z,11.57
2023-02-27T21:24:46.919Z,8.80
2023-02-27T21:27:24.646Z,7.25
2023-02-27T21:29:53.321Z,6.65
2023-02-27T21:32:25.054Z,7.47
2023-02-27T21:35:09.259Z,6.63
2023-02-27T21:37:46.842Z,7.45
2023-02-27T21:40:21.162Z,7.80
2023-02-27T21:42:50.890Z,7.30
2023-02-27T21:45:19.754Z,8.98
2023-02-27T21:47:49.783Z,10.27
2023-02-27T21:50:40.229Z,8.82
2023-02-27T21:53:14.440Z,12.90
2023-02-27T21:55:45.806Z,8.45
2023-02-27T21:58:17.388Z,7.38
2023-02-27T22:00:50.462Z,6.43
2023-02-27T22:03:37.137Z,7.13
2023-02-27T22:06:12.599Z,7.68
2023-02-27T22:08:58.369Z,10.80
2023-02-27T22:11:51.395Z,8.88
2023-02-27T22:14:22.003Z,9.30
2023-02-27T22:17:08.275Z,12.48
2023-02-27T22:19:59.138Z,9.25
2023-02-27T22:22:35.560Z,11.50
2023-02-27T22:25:09.799Z,8.68
2023-02-27T22:27:41.919Z,10.80
2023-02-27T22:30:20.832Z,9.57
2023-02-27T22:32:49.946Z,8.93
2023-02-27T22:35:27.654Z,7.05
2023-02-27T22:38:04.192Z,8.82
2023-02-27T22:40:47.501Z,7.72
2023-02-27T22:43:28.316Z,8.50
2023-02-27T22:45:57.090Z,8.77
2023-02-27T22:48:26.335Z,8.68
2023-02-27T22:51:20.682Z,13.40
2023-02-27T22:53:56.732Z,9.20
2023-02-27T22:56:30.567Z,9.40
2023-02-27T22:59:02.284Z,8.52
2023-02-27T23:01:36.420Z,10.73
2023-02-27T23:04:10.304Z,7.15
2023-02-27T23:06:43.162Z,7.85
2023-02-27T23:09:20.238Z,7.63
2023-02-27T23:11:50.130Z,7.60
2023-02-27T23:14:21.194Z,7.40
2023-02-27T23:16:51.248Z,7.30
2023-02-27T23:19:39.131Z,7.00
2023-02-27T23:22:10.734Z,8.00
2023-02-27T23:25:23.427Z,7.03
2023-02-27T23:28:01.678Z,7.40
2023-02-27T23:30:34.339Z,7.18
2023-02-27T23:33:14.761Z,7.85
2023-02-27T23:35:59.952Z,7.95
2023-02-27T23:38:29.166Z,8.40
2023-02-27T23:41:00.393Z,6.93
2023-02-27T23:43:31.307Z,7.60
2023-02-27T23:46:08.464Z,8.35
2023-02-27T23:48:43.077Z,7.90
2023-02-27T23:51:32.801Z,10.13
2023-02-27T23:54:23.109Z,9.82
2023-02-27T23:57:03.526Z,9.48
2023-02-27T23:59:53.418Z,10.02
